Time,TemperatureF,DewpointF,PressureIn,WindDirection,WindDirectionDegrees,WindSpeedMPH,WindSpeedGustMPH,Humidity,HourlyPrecipIn,Conditions,Clouds,dailyrainin,SoftwareType,DateUTC
2013-01-21 00:04:00,33.4,32.6,30.14,North,360,0.0,0.0,97,0.00,,,0.00,Wunderground v.1.15,2013-01-21 05:04:00,
2013-01-21 00:09:00,33.2,32.7,30.14,North,5,0.0,0.0,98,0.00,,,0.00,Wunderground v.1.15,2013-01-21 05:09:00,
2013-01-21 00:14:00,33.1,32.6,30.14,North,360,0.0,0.0,98,0.00,,,0.00,Wunderground v.1.15,2013-01-21 05:14:00,
2013-01-21 00:19:00,32.9,32.4,30.13,North,5,0.0,0.0,98,0.00,,,0.00,Wunderground v.1.15,2013-01-21 05:19:00,
2013-01-21 00:29:00,32.7,32.2,30.13,North,5,0.0,0.0,98,0.00,,,0.00,Wunderground v.1.15,2013-01-21 05:29:00,
2013-01-21 00:39:00,32.5,32.0,30.13,North,5,0.0,0.0,98,0.00,,,0.00,Wunderground v.1.15,2013-01-21 05:39:00,
2013-01-21 00:49:00,32.2,31.7,30.13,North,360,0.0,0.0,98,0.00,,,0.00,Wunderground v.1.15,2013-01-21 05:49:00,
2013-01-21 00:59:00,32.0,31.8,30.13,North,5,0.0,0.0,99,0.00,,,0.00,Wunderground v.1.15,2013-01-21 05:59:00,
2013-01-21 01:04:00,31.9,31.4,30.12,North,5,0.0,0.0,98,0.00,,,0.00,Wunderground v.1.15,2013-01-21 06:04:00,
2013-01-21 01:10:00,31.8,31.3,30.12,North,5,0.0,0.0,98,0.00,,,0.00,Wunderground v.1.15,2013-01-21 06:10:00,
2013-01-21 01:19:00,31.7,31.5,30.12,North,360,0.0,0.0,99,0.00,,,0.00,Wunderground v.1.15,2013-01-21 06:19:00,
2013-01-21 01:29:00,31.5,31.3,30.12,North,5,0.0,0.0,99,0.00,,,0.00,Wunderground v.1.15,2013-01-21 06:29:00,
2013-01-21 01:34:00,31.4,31.2,30.11,North,5,0.0,0.0,99,0.00,,,0.00,Wunderground v.1.15,2013-01-21 06:34:00,
2013-01-21 01:44:00,31.2,31.0,30.11,North,5,0.0,0.0,99,0.00,,,0.00,Wunderground v.1.15,2013-01-21 06:44:00,
2013-01-21 01:49:00,31.2,31.0,30.11,North,5,0.0,0.0,99,0.00,,,0.00,Wunderground v.1.15,2013-01-21 06:49:00,
2013-01-21 01:59:00,31.0,30.8,30.11,North,5,0.0,0.0,99,0.00,,,0.00,Wunderground v.1.15,2013-01-21 06:59:00,
2013-01-21 02:04:00,30.9,30.7,30.11,North,360,0.0,0.0,99,0.00,,,0.00,Wunderground v.1.15,2013-01-21 07:04:00,
2013-01-21 02:09:00,30.8,30.6,30.11,North,5,0.0,0.0,99,0.00,,,0.00,Wunderground v.1.15,2013-01-21 07:09:00,
2013-01-21 02:19:00,30.6,30.4,30.11,North,360,0.0,0.0,99,0.00,,,0.00,Wunderground v.1.15,2013-01-21 07:19:00,
2013-01-21 02:29:00,30.5,30.3,30.11,North,360,0.0,0.0,99,0.00,,,0.00,Wunderground v.1.15,2013-01-21 07:29:00,
2013-01-21 02:34:00,30.5,30.3,30.11,North,360,0.0,0.0,99,0.00,,,0.00,Wunderground v.1.15,2013-01-21 07:34:00,
2013-01-21 02:39:00,30.4,30.2,30.11,North,5,0.0,0.0,99,0.00,,,0.00,Wunderground v.1.15,2013-01-21 07:39:00,
2013-01-21 02:49:00,30.3,30.1,30.11,North,5,0.0,0.0,99,0.00,,,0.00,Wunderground v.1.15,2013-01-21 07:49:00,
2013-01-21 02:59:00,30.2,30.0,30.11,North,5,0.0,0.0,99,0.00,,,0.00,Wunderground v.1.15,2013-01-21 07:59:00,
2013-01-21 03:04:00,30.2,30.0,30.11,North,5,0.0,0.0,99,0.00,,,0.00,Wunderground v.1.15,2013-01-21 08:04:00,
2013-01-21 03:09:00,30.1,29.9,30.11,North,360,0.0,0.0,99,0.00,,,0.00,Wunderground v.1.15,2013-01-21 08:09:00,
2013-01-21 03:19:00,30.0,30.0,30.11,North,5,0.0,0.0,100,0.00,,,0.00,Wunderground v.1.15,2013-01-21 08:19:00,
2013-01-21 03:29:00,29.8,29.8,30.11,North,360,0.0,0.0,100,0.00,,,0.00,Wunderground v.1.15,2013-01-21 08:29:00,
2013-01-21 03:34:00,29.8,29.8,30.11,North,360,0.0,0.0,100,0.00,,,0.00,Wunderground v.1.15,2013-01-21 08:34:00,
2013-01-21 03:39:00,29.8,29.8,30.11,North,5,0.0,0.0,100,0.00,,,0.00,Wunderground v.1.15,2013-01-21 08:39:00,
2013-01-21 03:49:00,29.7,29.7,30.10,North,5,0.0,0.0,100,0.00,,,0.00,Wunderground v.1.15,2013-01-21 08:49:00,
2013-01-21 03:59:00,29.5,29.5,30.10,North,360,0.0,0.0,100,0.00,,,0.00,Wunderground v.1.15,2013-01-21 08:59:00,
2013-01-21 04:09:00,29.4,29.4,30.10,North,360,0.0,0.0,100,0.00,,,0.00,Wunderground v.1.15,2013-01-21 09:09:00,
2013-01-21 04:19:00,29.3,29.3,30.10,North,5,0.0,0.0,100,0.00,,,0.00,Wunderground v.1.15,2013-01-21 09:19:00,
2013-01-21 04:24:00,29.2,29.2,30.10,North,5,0.0,0.0,100,0.00,,,0.00,Wunderground v.1.15,2013-01-21 09:24:00,
2013-01-21 04:34:00,29.1,29.1,30.09,North,5,0.0,0.0,100,0.00,,,0.00,Wunderground v.1.15,2013-01-21 09:34:00,
2013-01-21 04:44:00,29.0,29.0,30.09,North,360,0.0,0.0,100,0.00,,,0.00,Wunderground v.1.15,2013-01-21 09:44:00,
2013-01-21 04:49:00,29.0,29.0,30.09,North,5,0.0,0.0,100,0.00,,,0.00,Wunderground v.1.15,2013-01-21 09:49:00,
2013-01-21 04:54:00,28.9,28.9,30.09,North,360,0.0,0.0,100,0.00,,,0.00,Wunderground v.1.15,2013-01-21 09:54:00,
2013-01-21 04:59:00,28.8,28.8,30.09,North,5,0.0,0.0,100,0.00,,,0.00,Wunderground v.1.15,2013-01-21 09:59:00,
2013-01-21 05:09:00,28.8,28.8,30.09,North,5,0.0,0.0,100,0.00,,,0.00,Wunderground v.1.15,2013-01-21 10:09:00,
2013-01-21 05:19:00,28.7,28.7,30.09,North,360,0.0,0.0,100,0.00,,,0.00,Wunderground v.1.15,2013-01-21 10:19:00,
2013-01-21 05:24:00,28.5,28.5,30.09,North,5,0.0,0.0,100,0.00,,,0.00,Wunderground v.1.15,2013-01-21 10:24:00,
2013-01-21 05:29:00,28.4,28.4,30.09,North,360,0.0,0.0,100,0.00,,,0.00,Wunderground v.1.15,2013-01-21 10:29:00,
2013-01-21 05:39:00,28.3,28.3,30.10,North,5,0.0,0.0,100,0.00,,,0.00,Wunderground v.1.15,2013-01-21 10:39:00,
2013-01-21 05:49:00,28.3,28.3,30.10,North,5,0.0,0.0,100,0.00,,,0.00,Wunderground v.1.15,2013-01-21 10:49:00,
2013-01-21 05:54:00,28.2,28.2,30.10,North,5,0.0,0.0,100,0.00,,,0.00,Wunderground v.1.15,2013-01-21 10:54:00,
2013-01-21 06:04:00,28.1,28.1,30.10,North,5,0.0,0.0,100,0.00,,,0.00,Wunderground v.1.15,2013-01-21 11:04:00,
2013-01-21 06:09:00,28.1,28.1,30.10,North,5,0.0,0.0,100,0.00,,,0.00,Wunderground v.1.15,2013-01-21 11:09:00,
2013-01-21 06:19:00,28.0,28.0,30.11,North,5,0.0,0.0,100,0.00,,,0.00,Wunderground v.1.15,2013-01-21 11:19:00,
2013-01-21 06:24:00,28.0,28.0,30.11,North,5,0.0,0.0,100,0.00,,,0.00,Wunderground v.1.15,2013-01-21 11:24:00,
2013-01-21 06:34:00,27.9,27.9,30.11,North,360,0.0,0.0,100,0.00,,,0.00,Wunderground v.1.15,2013-01-21 11:34:00,
2013-01-21 06:44:00,27.8,27.8,30.11,North,5,0.0,0.0,100,0.00,,,0.00,Wunderground v.1.15,2013-01-21 11:44:00,
2013-01-21 06:49:00,27.8,27.8,30.11,North,360,0.0,0.0,100,0.00,,,0.00,Wunderground v.1.15,2013-01-21 11:49:00,
2013-01-21 06:59:00,27.8,27.8,30.11,North,360,0.0,0.0,100,0.00,,,0.00,Wunderground v.1.15,2013-01-21 11:59:00,
2013-01-21 07:04:00,27.7,27.7,30.11,North,5,0.0,0.0,100,0.00,,,0.00,Wunderground v.1.15,2013-01-21 12:04:00,
2013-01-21 07:09:00,27.6,27.6,30.11,North,360,0.0,0.0,100,0.00,,,0.00,Wunderground v.1.15,2013-01-21 12:09:00,
2013-01-21 07:19:00,27.6,27.6,30.13,North,5,0.0,0.0,100,0.00,,,0.00,Wunderground v.1.15,2013-01-21 12:19:00,
2013-01-21 07:29:00,27.6,27.6,30.13,North,5,0.0,0.0,100,0.00,,,0.00,Wunderground v.1.15,2013-01-21 12:29:00,
2013-01-21 07:34:00,27.6,27.6,30.13,North,5,0.0,0.0,100,0.00,,,0.00,Wunderground v.1.15,2013-01-21 12:34:00,
2013-01-21 07:39:00,27.6,27.6,30.13,North,5,0.0,0.0,100,0.00,,,0.00,Wunderground v.1.15,2013-01-21 12:39:00,
2013-01-21 07:49:00,27.6,27.6,30.13,North,5,0.0,0.0,100,0.00,,,0.00,Wunderground v.1.15,2013-01-21 12:49:00,
2013-01-21 07:59:00,27.6,27.6,30.13,North,360,0.0,0.0,100,0.00,,,0.00,Wunderground v.1.15,2013-01-21 12:59:00,
2013-01-21 08:04:00,27.7,27.7,30.13,North,5,0.0,0.0,100,0.00,,,0.00,Wunderground v.1.15,2013-01-21 13:04:00,
2013-01-21 08:09:00,27.8,27.8,30.13,North,360,0.0,0.0,100,0.00,,,0.00,Wunderground v.1.15,2013-01-21 13:09:00,
2013-01-21 08:19:00,27.9,27.9,30.14,North,5,0.0,0.0,100,0.00,,,0.00,Wunderground v.1.15,2013-01-21 13:19:00,
2013-01-21 08:24:00,28.0,28.0,30.14,North,360,0.0,0.0,100,0.00,,,0.00,Wunderground v.1.15,2013-01-21 13:24:00,
2013-01-21 08:29:00,28.2,28.2,30.14,North,5,0.0,0.0,100,0.00,,,0.00,Wunderground v.1.15,2013-01-21 13:29:00,
2013-01-21 08:39:00,28.6,28.6,30.15,North,360,0.0,0.0,100,0.00,,,0.00,Wunderground v.1.15,2013-01-21 13:39:00,
2013-01-21 08:49:00,29.0,29.0,30.15,North,5,0.0,0.0,100,0.00,,,0.00,Wunderground v.1.15,2013-01-21 13:49:00,
2013-01-21 08:54:00,29.5,29.5,30.15,North,5,0.0,0.0,100,0.00,,,0.00,Wunderground v.1.15,2013-01-21 13:54:00,
2013-01-21 08:59:00,29.9,29.9,30.15,North,5,0.0,0.0,100,0.00,,,0.00,Wunderground v.1.15,2013-01-21 13:59:00,
2013-01-21 09:09:00,30.8,30.8,30.16,North,5,0.0,0.0,100,0.00,,,0.00,Wunderground v.1.15,2013-01-21 14:09:00,
2013-01-21 09:19:00,31.8,31.8,30.15,North,5,0.0,0.0,100,0.00,,,0.00,Wunderground v.1.15,2013-01-21 14:19:00,
2013-01-21 09:24:00,32.3,32.3,30.15,North,360,0.0,0.0,100,0.00,,,0.00,Wunderground v.1.15,2013-01-21 14:24:00,
2013-01-21 09:29:00,32.8,32.8,30.15,North,5,0.0,0.0,100,0.00,,,0.00,Wunderground v.1.15,2013-01-21 14:29:00,
2013-01-21 09:39:00,34.0,34.0,30.15,North,360,0.0,0.0,100,0.00,,,0.00,Wunderground v.1.15,2013-01-21 14:39:00,
2013-01-21 09:49:00,35.4,35.4,30.15,North,360,0.0,0.0,100,0.00,,,0.00,Wunderground v.1.15,2013-01-21 14:49:00,
2013-01-21 09:54:00,36.1,36.1,30.15,North,5,0.0,0.0,100,0.00,,,0.00,Wunderground v.1.15,2013-01-21 14:54:00,
2013-01-21 09:59:00,36.6,36.6,30.15,North,360,0.0,0.0,100,0.00,,,0.00,Wunderground v.1.15,2013-01-21 14:59:00,
2013-01-21 10:09:00,37.9,37.9,30.14,North,5,0.0,0.0,100,0.00,,,0.00,Wunderground v.1.15,2013-01-21 15:09:00,
2013-01-21 10:14:00,39.1,39.1,30.14,North,5,0.0,0.0,100,0.00,,,0.00,Wunderground v.1.15,2013-01-21 15:14:00,
2013-01-21 10:19:00,40.2,39.9,30.15,North,5,0.0,0.0,99,0.00,,,0.00,Wunderground v.1.15,2013-01-21 15:19:00,
2013-01-21 10:29:00,42.3,39.9,30.15,North,5,0.0,0.0,91,0.00,,,0.00,Wunderground v.1.15,2013-01-21 15:29:00,
2013-01-21 10:39:00,43.8,40.2,30.15,East,95,0.0,0.0,87,0.00,,,0.00,Wunderground v.1.15,2013-01-21 15:39:00,
2013-01-21 10:49:00,45.9,40.4,30.15,East,84,0.0,0.0,81,0.00,,,0.00,Wunderground v.1.15,2013-01-21 15:49:00,
2013-01-21 10:59:00,48.2,41.0,30.15,North,5,1.0,3.0,76,0.00,,,0.00,Wunderground v.1.15,2013-01-21 15:59:00,
2013-01-21 11:09:00,50.7,39.7,30.14,North,355,1.0,1.0,66,0.00,,,0.00,Wunderground v.1.15,2013-01-21 16:09:00,
2013-01-21 11:14:00,51.7,38.7,30.14,North,360,1.0,2.0,61,0.00,,,0.00,Wunderground v.1.15,2013-01-21 16:14:00,
2013-01-21 11:19:00,52.5,39.0,30.14,NW,312,1.0,1.0,60,0.00,,,0.00,Wunderground v.1.15,2013-01-21 16:19:00,
2013-01-21 11:29:00,53.7,39.3,30.14,NNW,348,0.0,2.0,58,0.00,,,0.00,Wunderground v.1.15,2013-01-21 16:29:00,
2013-01-21 11:39:00,54.0,39.1,30.13,NW,321,1.0,1.0,57,0.00,,,0.00,Wunderground v.1.15,2013-01-21 16:39:00,
2013-01-21 11:44:00,54.1,37.3,30.13,NNW,335,2.0,2.0,53,0.00,,,0.00,Wunderground v.1.15,2013-01-21 16:44:00,
2013-01-21 11:49:00,54.2,38.4,30.13,North,360,1.0,11.0,55,0.00,,,0.00,Wunderground v.1.15,2013-01-21 16:49:00,
2013-01-21 11:59:00,54.8,39.4,30.13,North,360,1.0,1.0,56,0.00,,,0.00,Wunderground v.1.15,2013-01-21 16:59:00,
2013-01-21 12:09:00,55.9,39.5,30.12,SSE,150,0.0,0.0,54,0.00,,,0.00,Wunderground v.1.15,2013-01-21 17:09:00,
2013-01-21 12:14:00,56.6,38.7,30.12,NNE,30,0.0,0.0,51,0.00,,,0.00,Wunderground v.1.15,2013-01-21 17:14:00,
2013-01-21 12:19:00,56.7,38.8,30.12,NNW,336,1.0,1.0,51,0.00,,,0.00,Wunderground v.1.15,2013-01-21 17:19:00,
2013-01-21 12:29:00,57.3,39.8,30.12,North,10,0.0,0.0,52,0.00,,,0.00,Wunderground v.1.15,2013-01-21 17:29:00,
2013-01-21 12:39:00,57.4,39.9,30.11,NNW,345,0.0,0.0,52,0.00,,,0.00,Wunderground v.1.15,2013-01-21 17:39:00,
2013-01-21 12:44:00,57.6,39.6,30.11,NE,48,1.0,4.0,51,0.00,,,0.00,Wunderground v.1.15,2013-01-21 17:44:00,
2013-01-21 12:54:00,57.4,38.4,30.10,NNW,345,1.0,4.0,49,0.00,,,0.00,Wunderground v.1.15,2013-01-21 17:54:00,
2013-01-21 12:59:00,57.2,38.7,30.10,NNW,346,1.0,1.0,50,0.00,,,0.00,Wunderground v.1.15,2013-01-21 17:59:00,
2013-01-21 13:04:00,57.0,38.5,30.10,NNW,344,1.0,1.0,50,0.00,,,0.00,Wunderground v.1.15,2013-01-21 18:04:00,
2013-01-21 13:09:00,57.1,39.1,30.10,NNW,339,1.0,1.0,51,0.00,,,0.00,Wunderground v.1.15,2013-01-21 18:09:00,
2013-01-21 13:19:00,58.3,38.7,30.09,NNE,24,0.0,0.0,48,0.00,,,0.00,Wunderground v.1.15,2013-01-21 18:19:00,
2013-01-21 13:29:00,58.1,36.9,30.09,SSE,160,1.0,1.0,45,0.00,,,0.00,Wunderground v.1.15,2013-01-21 18:29:00,
2013-01-21 13:39:00,57.5,36.3,30.09,North,5,0.0,0.0,45,0.00,,,0.00,Wunderground v.1.15,2013-01-21 18:39:00,
2013-01-21 13:49:00,56.8,37.3,30.09,NE,38,0.0,0.0,48,0.00,,,0.00,Wunderground v.1.15,2013-01-21 18:49:00,
2013-01-21 13:59:00,56.1,37.2,30.09,NE,43,1.0,1.0,49,0.00,,,0.00,Wunderground v.1.15,2013-01-21 18:59:00,
2013-01-21 14:09:00,56.3,37.4,30.09,NNW,342,1.0,1.0,49,0.00,,,0.00,Wunderground v.1.15,2013-01-21 19:09:00,
2013-01-21 14:14:00,56.6,38.2,30.09,WNW,288,1.0,1.0,50,0.00,,,0.00,Wunderground v.1.15,2013-01-21 19:14:00,
2013-01-21 14:19:00,57.1,38.6,30.09,West,281,0.0,0.0,50,0.00,,,0.00,Wunderground v.1.15,2013-01-21 19:19:00,
2013-01-21 14:29:00,56.8,38.3,30.09,North,355,0.0,3.0,50,0.00,,,0.00,Wunderground v.1.15,2013-01-21 19:29:00,
2013-01-21 14:39:00,55.6,35.7,30.10,SE,130,2.0,3.0,47,0.00,,,0.00,Wunderground v.1.15,2013-01-21 19:39:00,
2013-01-21 14:44:00,55.0,36.7,30.10,NNW,338,2.0,3.0,50,0.00,,,0.00,Wunderground v.1.15,2013-01-21 19:44:00,
2013-01-21 14:49:00,54.8,38.0,30.11,NW,306,1.0,1.0,53,0.00,,,0.00,Wunderground v.1.15,2013-01-21 19:49:00,
2013-01-21 14:59:00,54.3,37.0,30.11,NNE,25,2.0,2.0,52,0.00,,,0.00,Wunderground v.1.15,2013-01-21 19:59:00,
2013-01-21 15:09:00,53.6,34.9,30.11,North,355,1.0,1.0,49,0.00,,,0.00,Wunderground v.1.15,2013-01-21 20:09:00,
2013-01-21 15:14:00,53.3,35.1,30.11,NNW,336,1.0,1.0,50,0.00,,,0.00,Wunderground v.1.15,2013-01-21 20:14:00,
2013-01-21 15:19:00,52.9,35.2,30.13,NW,318,1.0,2.0,51,0.00,,,0.00,Wunderground v.1.15,2013-01-21 20:19:00,
2013-01-21 15:29:00,51.9,33.8,30.13,NNW,327,1.0,1.0,50,0.00,,,0.00,Wunderground v.1.15,2013-01-21 20:29:00,
2013-01-21 15:39:00,51.4,34.3,30.13,West,264,0.0,0.0,52,0.00,,,0.00,Wunderground v.1.15,2013-01-21 20:39:00,
2013-01-21 15:44:00,51.2,33.2,30.13,NNE,15,1.0,2.0,50,0.00,,,0.00,Wunderground v.1.15,2013-01-21 20:44:00,
2013-01-21 15:49:00,50.9,33.4,30.13,NNW,345,1.0,1.0,51,0.00,,,0.00,Wunderground v.1.15,2013-01-21 20:49:00,
2013-01-21 15:59:00,50.3,32.8,30.13,North,360,2.0,5.0,51,0.00,,,0.00,Wunderground v.1.15,2013-01-21 20:59:00,
2013-01-21 16:09:00,49.7,32.8,30.13,North,355,1.0,1.0,52,0.00,,,0.00,Wunderground v.1.15,2013-01-21 21:09:00,
2013-01-21 16:14:00,49.6,32.2,30.13,NNW,348,0.0,1.0,51,0.00,,,0.00,Wunderground v.1.15,2013-01-21 21:14:00,
2013-01-21 16:24:00,49.3,32.4,30.14,NNW,346,1.0,3.0,52,0.00,,,0.00,Wunderground v.1.15,2013-01-21 21:24:00,
2013-01-21 16:29:00,49.2,31.8,30.14,North,360,1.0,1.0,51,0.00,,,0.00,Wunderground v.1.15,2013-01-21 21:29:00,
2013-01-21 16:39:00,49.0,31.6,30.14,SE,135,0.0,0.0,51,0.00,,,0.00,Wunderground v.1.15,2013-01-21 21:39:00,
2013-01-21 16:49:00,48.7,31.8,30.14,NNE,16,0.0,0.0,52,0.00,,,0.00,Wunderground v.1.15,2013-01-21 21:49:00,
2013-01-21 16:54:00,48.5,32.6,30.14,NNE,24,0.0,0.0,54,0.00,,,0.00,Wunderground v.1.15,2013-01-21 21:54:00,
2013-01-21 16:59:00,48.4,32.5,30.14,NNE,24,0.0,0.0,54,0.00,,,0.00,Wunderground v.1.15,2013-01-21 21:59:00,
2013-01-21 17:09:00,48.1,32.2,30.14,NNE,18,0.0,0.0,54,0.00,,,0.00,Wunderground v.1.15,2013-01-21 22:09:00,
2013-01-21 17:14:00,47.9,31.6,30.14,NNW,348,0.0,0.0,53,0.00,,,0.00,Wunderground v.1.15,2013-01-21 22:14:00,
2013-01-21 17:19:00,47.6,30.8,30.14,NNE,18,0.0,1.0,52,0.00,,,0.00,Wunderground v.1.15,2013-01-21 22:19:00,
2013-01-21 17:29:00,47.2,30.0,30.14,North,360,1.0,2.0,51,0.00,,,0.00,Wunderground v.1.15,2013-01-21 22:29:00,
2013-01-21 17:34:00,47.0,29.8,30.15,North,351,1.0,2.0,51,0.00,,,0.00,Wunderground v.1.15,2013-01-21 22:34:00,
2013-01-21 17:39:00,46.7,30.5,30.15,NNW,329,1.0,1.0,53,0.00,,,0.00,Wunderground v.1.15,2013-01-21 22:39:00,
2013-01-21 17:49:00,46.2,31.4,30.16,NNW,329,0.0,0.0,56,0.00,,,0.00,Wunderground v.1.15,2013-01-21 22:49:00,
2013-01-21 17:54:00,45.8,30.5,30.16,North,355,0.0,0.0,55,0.00,,,0.00,Wunderground v.1.15,2013-01-21 22:54:00,
2013-01-21 17:59:00,45.4,30.2,30.16,North,355,0.0,0.0,55,0.00,,,0.00,Wunderground v.1.15,2013-01-21 22:59:00,
2013-01-21 18:09:00,44.9,29.2,30.17,North,355,0.0,0.0,54,0.00,,,0.00,Wunderground v.1.15,2013-01-21 23:09:00,
2013-01-21 18:14:00,44.6,29.4,30.17,North,355,0.0,0.0,55,0.00,,,0.00,Wunderground v.1.15,2013-01-21 23:14:00,
2013-01-21 18:20:00,44.3,29.6,30.17,North,355,0.0,0.0,56,0.00,,,0.00,Wunderground v.1.15,2013-01-21 23:20:00,
2013-01-21 18:29:00,43.7,29.5,30.17,North,355,0.0,0.0,57,0.00,,,0.00,Wunderground v.1.15,2013-01-21 23:29:00,
2013-01-21 18:39:00,43.2,29.4,30.17,North,355,0.0,0.0,58,0.00,,,0.00,Wunderground v.1.15,2013-01-21 23:39:00,
2013-01-21 18:49:00,42.7,28.9,30.18,North,355,0.0,0.0,58,0.00,,,0.00,Wunderground v.1.15,2013-01-21 23:49:00,
2013-01-21 18:59:00,42.2,32.0,30.18,North,355,0.0,0.0,67,0.00,,,0.00,Wunderground v.1.15,2013-01-21 23:59:00,
2013-01-21 19:09:00,41.5,31.7,30.18,North,355,0.0,0.0,68,0.00,,,0.00,Wunderground v.1.15,2013-01-22 00:09:00,
2013-01-21 19:19:00,40.6,29.7,30.18,North,355,0.0,0.0,65,0.00,,,0.00,Wunderground v.1.15,2013-01-22 00:19:00,
2013-01-21 19:24:00,40.4,28.0,30.18,North,355,0.0,0.0,61,0.00,,,0.00,Wunderground v.1.15,2013-01-22 00:24:00,
2013-01-21 19:29:00,40.2,28.2,30.18,North,355,0.0,0.0,62,0.00,,,0.00,Wunderground v.1.15,2013-01-22 00:29:00,
2013-01-21 19:39:00,40.1,27.3,30.19,North,355,0.0,0.0,60,0.00,,,0.00,Wunderground v.1.15,2013-01-22 00:39:00,
2013-01-21 19:49:00,40.0,27.2,30.19,North,355,0.0,0.0,60,0.00,,,0.00,Wunderground v.1.15,2013-01-22 00:49:00,
2013-01-21 19:54:00,39.8,27.8,30.19,North,355,0.0,0.0,62,0.00,,,0.00,Wunderground v.1.15,2013-01-22 00:54:00,
2013-01-21 19:59:00,39.7,28.9,30.19,North,355,0.0,0.0,65,0.00,,,0.00,Wunderground v.1.15,2013-01-22 00:59:00,
2013-01-21 20:09:00,39.3,28.5,30.19,North,355,0.0,0.0,65,0.00,,,0.00,Wunderground v.1.15,2013-01-22 01:09:00,
2013-01-21 20:19:00,38.9,27.4,30.19,North,355,0.0,0.0,63,0.00,,,0.00,Wunderground v.1.15,2013-01-22 01:19:00,
2013-01-21 20:24:00,38.8,26.9,30.19,North,355,0.0,0.0,62,0.00,,,0.00,Wunderground v.1.15,2013-01-22 01:24:00,
2013-01-21 20:29:00,38.8,26.5,30.19,North,355,0.0,0.0,61,0.00,,,0.00,Wunderground v.1.15,2013-01-22 01:29:00,
2013-01-21 20:39:00,38.7,26.0,30.19,North,355,0.0,0.0,60,0.00,,,0.00,Wunderground v.1.15,2013-01-22 01:39:00,
2013-01-21 20:49:00,38.5,26.6,30.20,North,355,0.0,0.0,62,0.00,,,0.00,Wunderground v.1.15,2013-01-22 01:49:00,
2013-01-21 20:54:00,38.4,25.7,30.20,North,355,0.0,0.0,60,0.00,,,0.00,Wunderground v.1.15,2013-01-22 01:54:00,
2013-01-21 20:59:00,38.3,25.6,30.20,North,355,0.0,0.0,60,0.00,,,0.00,Wunderground v.1.15,2013-01-22 01:59:00,
2013-01-21 21:09:00,38.0,25.3,30.20,North,355,0.0,0.0,60,0.00,,,0.00,Wunderground v.1.15,2013-01-22 02:09:00,
2013-01-21 21:19:00,37.7,25.1,30.19,North,355,0.0,0.0,60,0.00,,,0.00,Wunderground v.1.15,2013-01-22 02:19:00,
2013-01-21 21:24:00,37.5,26.0,30.19,North,355,0.0,0.0,63,0.00,,,0.00,Wunderground v.1.15,2013-01-22 02:24:00,
2013-01-21 21:29:00,37.4,24.4,30.19,NNW,342,0.0,0.0,59,0.00,,,0.00,Wunderground v.1.15,2013-01-22 02:29:00,
2013-01-21 21:39:00,37.4,24.0,30.20,NNW,337,0.0,0.0,58,0.00,,,0.00,Wunderground v.1.15,2013-01-22 02:39:00,
2013-01-21 21:49:00,37.5,24.9,30.20,NNW,344,0.0,0.0,60,0.00,,,0.00,Wunderground v.1.15,2013-01-22 02:49:00,
2013-01-21 21:59:00,37.4,24.4,30.20,NNW,346,0.0,0.0,59,0.00,,,0.00,Wunderground v.1.15,2013-01-22 02:59:00,
2013-01-21 22:04:00,37.3,23.9,30.20,NNW,345,0.0,0.0,58,0.00,,,0.00,Wunderground v.1.15,2013-01-22 03:04:00,
2013-01-21 22:09:00,37.3,24.7,30.20,NNW,346,0.0,1.0,60,0.00,,,0.00,Wunderground v.1.15,2013-01-22 03:09:00,
2013-01-21 22:19:00,37.1,24.9,30.18,North,10,0.0,0.0,61,0.00,,,0.00,Wunderground v.1.15,2013-01-22 03:19:00,
2013-01-21 22:29:00,36.7,24.9,30.18,NNE,12,0.0,0.0,62,0.00,,,0.00,Wunderground v.1.15,2013-01-22 03:29:00,
2013-01-21 22:34:00,36.5,24.7,30.19,North,11,0.0,0.0,62,0.00,,,0.00,Wunderground v.1.15,2013-01-22 03:34:00,
2013-01-21 22:44:00,36.1,24.3,30.19,NNE,12,0.0,0.0,62,0.00,,,0.00,Wunderground v.1.15,2013-01-22 03:44:00,
2013-01-21 22:49:00,36.0,24.2,30.19,North,10,0.0,0.0,62,0.00,,,0.00,Wunderground v.1.15,2013-01-22 03:49:00,
2013-01-21 22:54:00,35.9,23.4,30.19,NNE,20,0.0,0.0,60,0.00,,,0.00,Wunderground v.1.15,2013-01-22 03:54:00,
2013-01-21 22:59:00,35.8,24.0,30.19,NNE,19,0.0,0.0,62,0.00,,,0.00,Wunderground v.1.15,2013-01-22 03:59:00,
2013-01-21 23:09:00,35.6,23.9,30.19,NNE,19,0.0,0.0,62,0.00,,,0.00,Wunderground v.1.15,2013-01-22 04:09:00,
2013-01-21 23:19:00,35.4,24.0,30.18,NNW,340,0.0,0.0,63,0.00,,,0.00,Wunderground v.1.15,2013-01-22 04:19:00,
2013-01-21 23:24:00,35.3,23.6,30.18,NNW,340,0.0,0.0,62,0.00,,,0.00,Wunderground v.1.15,2013-01-22 04:24:00,
2013-01-21 23:29:00,35.2,23.5,30.18,NNW,342,0.0,0.0,62,0.00,,,0.00,Wunderground v.1.15,2013-01-22 04:29:00,
2013-01-21 23:39:00,35.2,23.5,30.18,NNW,340,0.0,0.0,62,0.00,,,0.00,Wunderground v.1.15,2013-01-22 04:39:00,
2013-01-21 23:49:00,35.0,23.3,30.17,NNW,336,0.0,0.0,62,0.00,,,0.00,Wunderground v.1.15,2013-01-22 04:49:00,
2013-01-21 23:54:00,34.9,23.6,30.17,NNW,336,0.0,0.0,63,0.00,,,0.00,Wunderground v.1.15,2013-01-22 04:54:00,
2013-01-21 23:59:00,34.8,23.5,30.17,NNW,336,0.0,0.0,63,0.00,,,0.00,Wunderground v.1.15,2013-01-22 04:59:00,